Time;durP1;ratioP1;P1;durP2;ratioP2;P2;SDS_P1;SDS_P2;PMS_P1;PMS_P2;Temp;Humidity;BMP_temperature;BMP_pressure;BME280_temperature;BME280_humidity;BME280_pressure;Samples;Min_cycle;Max_cycle;Signal;HPM_P1;HPM_P2
2021/10/27 00:05:36;;;;;;;27.73;17.53;;;;;;;9.14;96.98;101148.34;7005936;81;99015;-80
2021/10/27 00:15:37;;;;;;;30.57;17.43;;;;;;;9.09;96.93;101146.39;7011820;82;98879;-79
2021/10/27 00:25:38;;;;;;;34.47;18.23;;;;;;;9.02;96.89;101145.64;6997330;82;98823;-80
2021/10/27 00:35:40;;;;;;;31.07;17.53;;;;;;;8.95;96.95;101149.53;7004648;82;155262;-80
2021/10/27 00:45:40;;;;;;;31.90;18.87;;;;;;;8.86;97.23;101155.77;7008800;82;99258;-80
2021/10/27 00:55:41;;;;;;;31.00;18.37;;;;;;;8.81;97.65;101158.75;7014717;81;99263;-80
2021/10/27 01:05:42;;;;;;;26.40;16.03;;;;;;;8.77;97.88;101159.80;7012352;82;98896;-80
2021/10/27 01:15:43;;;;;;;27.77;17.00;;;;;;;8.73;97.62;101139.67;7018099;82;104867;-79
2021/10/27 01:25:44;;;;;;;25.83;14.87;;;;;;;8.70;97.63;101146.66;7001946;82;99374;-80
2021/10/27 01:35:45;;;;;;;29.57;17.87;;;;;;;8.67;97.38;101143.22;7016098;82;99151;-80
2021/10/27 01:45:46;;;;;;;32.03;17.73;;;;;;;8.64;97.54;101141.19;7017875;82;98879;-80
2021/10/27 01:55:46;;;;;;;27.53;16.40;;;;;;;8.61;97.84;101143.83;7006935;82;98909;-80
2021/10/27 02:05:47;;;;;;;30.23;16.80;;;;;;;8.61;97.70;101143.23;7017971;82;98892;-80
2021/10/27 02:15:48;;;;;;;25.90;16.43;;;;;;;8.61;97.67;101132.85;7018557;82;107438;-80
2021/10/27 02:25:49;;;;;;;30.47;17.43;;;;;;;8.59;97.98;101140.61;7020672;82;98828;-80
2021/10/27 02:35:49;;;;;;;25.63;17.00;;;;;;;8.58;98.03;101132.97;7020515;81;98793;-79
2021/10/27 02:45:50;;;;;;;27.60;16.23;;;;;;;8.54;98.25;101128.50;7013633;82;98929;-80
2021/10/27 02:55:51;;;;;;;25.57;14.93;;;;;;;8.52;98.83;101121.20;7025989;82;99218;-79
2021/10/27 03:05:52;;;;;;;25.07;14.93;;;;;;;8.52;98.68;101126.13;7015222;82;99229;-79
2021/10/27 03:15:52;;;;;;;26.90;14.63;;;;;;;8.55;98.41;101134.20;7016908;81;98780;-79
2021/10/27 03:25:53;;;;;;;24.27;15.13;;;;;;;8.55;98.67;101137.77;7010575;82;98922;-80
2021/10/27 03:35:54;;;;;;;27.60;16.90;;;;;;;8.53;98.41;101135.14;6979858;82;98861;-80
2021/10/27 03:45:55;;;;;;;28.00;16.42;;;;;;;8.50;98.58;101141.33;6981747;83;98911;-80
2021/10/27 03:55:56;;;;;;;23.43;14.27;;;;;;;8.46;98.46;101150.80;6970043;82;99169;-80
2021/10/27 04:05:57;;;;;;;23.10;14.47;;;;;;;8.41;98.14;101145.55;6973185;81;98938;-80
2021/10/27 04:15:58;;;;;;;24.40;15.93;;;;;;;8.33;98.00;101148.41;6982089;83;98932;-79
2021/10/27 04:25:58;;;;;;;27.97;15.57;;;;;;;8.23;98.17;101147.53;6966675;83;99071;-80
2021/10/27 04:35:59;;;;;;;28.13;16.23;;;;;;;8.10;98.27;101142.59;6999599;82;98584;-78
2021/10/27 04:46:00;;;;;;;25.43;15.83;;;;;;;7.98;98.27;101145.33;6989422;82;98895;-79
2021/10/27 04:56:02;;;;;;;28.05;15.78;;;;;;;7.86;98.53;101156.27;7007818;82;98755;-79
2021/10/27 05:06:05;;;;;;;26.20;15.43;;;;;;;7.78;98.21;101161.30;7006794;82;98877;-79
2021/10/27 05:16:06;;;;;;;26.85;16.07;;;;;;;7.68;98.66;101166.42;7009328;82;98858;-80
2021/10/27 05:26:06;;;;;;;29.27;17.75;;;;;;;7.64;98.43;101158.05;7010705;82;98987;-80
2021/10/27 05:36:07;;;;;;;28.37;17.50;;;;;;;7.59;99.03;101166.48;7006795;81;98932;-79
2021/10/27 05:46:08;;;;;;;34.05;19.17;;;;;;;7.57;99.77;101161.93;6972624;83;106782;-79
2021/10/27 05:56:09;;;;;;;32.03;20.07;;;;;;;7.64;100.00;101166.86;6989219;83;99064;-80
2021/10/27 06:06:12;;;;;;;28.50;17.60;;;;;;;7.76;100.00;101177.84;6991781;83;99371;-79
2021/10/27 06:16:14;;;;;;;26.10;16.17;;;;;;;7.93;100.00;101193.52;6998307;81;123631;-78
2021/10/27 06:26:19;;;;;;;27.70;16.12;;;;;;;8.11;100.00;101187.23;6992806;82;99507;-79
2021/10/27 06:56:23;;;;;;;28.33;15.73;;;;;;;8.63;100.00;101197.22;7015846;82;99155;-80
2021/10/27 07:06:42;;;;;;;25.27;14.10;;;;;;;8.84;100.00;101192.94;7011626;82;99491;-80
2021/10/27 07:16:29;;;;;;;23.07;13.93;;;;;;;9.03;99.75;101187.61;7013983;82;196889;-79
2021/10/27 07:26:30;;;;;;;20.17;12.57;;;;;;;9.30;99.33;101204.67;7011423;82;99516;-79
2021/10/27 07:46:51;;;;;;;25.27;14.13;;;;;;;9.68;98.23;101230.51;6996398;83;98926;-81
2021/10/27 07:56:52;;;;;;;25.17;12.53;;;;;;;9.83;97.51;101229.75;6985072;83;98847;-79
2021/10/27 08:06:53;;;;;;;22.60;11.80;;;;;;;9.96;97.11;101239.51;6990714;82;139673;-79
2021/10/27 08:16:53;;;;;;;24.63;12.87;;;;;;;10.11;96.65;101246.20;6992136;83;106406;-80
2021/10/27 08:27:04;;;;;;;22.07;11.48;;;;;;;10.21;96.02;101240.18;6990530;82;99506;-81
2021/10/27 08:36:57;;;;;;;23.07;12.07;;;;;;;10.31;95.78;101234.93;6917112;83;99494;-79
2021/10/27 08:47:02;;;;;;;24.47;12.05;;;;;;;10.46;95.47;101228.62;6874218;83;99282;-79
2021/10/27 08:57:11;;;;;;;17.67;11.33;;;;;;;10.65;94.82;101224.58;6896354;83;99649;-78
2021/10/27 09:07:23;;;;;;;17.90;10.30;;;;;;;10.88;94.25;101235.12;6851103;84;99289;-80
2021/10/27 10:08:48;;;;;;;17.32;9.55;;;;;;;12.61;89.78;101272.64;6911776;84;99099;-81
2021/10/27 10:18:50;;;;;;;13.40;8.30;;;;;;;12.84;88.81;101270.63;6910787;83;99394;-79
2021/10/27 10:28:51;;;;;;;15.97;8.60;;;;;;;13.29;87.69;101258.08;6909529;83;99081;-80
2021/10/27 11:40:40;;;;;;;10.77;6.27;;;;;;;14.49;82.48;101233.30;6862378;83;99172;-81
2021/10/27 11:50:39;;;;;;;11.57;5.87;;;;;;;14.70;82.39;101239.00;6955589;83;99150;-81
2021/10/27 12:00:46;;;;;;;15.43;5.47;;;;;;;14.63;81.31;101238.15;6865606;80;99111;-92
2021/10/27 12:20:58;;;;;;;13.33;5.23;;;;;;;14.73;81.71;101238.25;6821627;85;99061;-94
2021/10/27 12:31:17;;;;;;;11.25;5.03;;;;;;;14.63;80.70;101229.27;6849206;84;99173;-96
2021/10/27 12:41:22;;;;;;;14.30;6.30;;;;;;;14.56;80.99;101233.95;6821369;85;99144;-94
2021/10/27 12:51:29;;;;;;;11.90;5.67;;;;;;;14.51;80.53;101226.00;6813844;85;99148;-92
2021/10/27 13:01:48;;;;;;;14.27;6.77;;;;;;;14.46;80.67;101229.92;6787336;85;99098;-94
2021/10/27 13:32:01;;;;;;;12.83;5.00;;;;;;;14.47;81.03;101208.55;6719394;85;99378;-95
2021/10/27 13:42:12;;;;;;;15.33;6.30;;;;;;;14.43;81.06;101191.09;6720877;86;99077;-96
2021/10/27 14:12:54;;;;;;;13.47;6.17;;;;;;;14.28;81.16;101178.34;6721541;85;99119;-92
2021/10/27 14:23:10;;;;;;;8.97;4.63;;;;;;;14.22;81.63;101189.56;6756532;85;99107;-90
2021/10/27 15:34:48;;;;;;;16.37;6.47;;;;;;;13.52;83.90;101209.58;6726766;85;99054;-94
2021/10/27 15:44:54;;;;;;;14.35;6.25;;;;;;;13.48;84.16;101219.22;6748687;85;99065;-88
2021/10/27 15:54:45;;;;;;;11.00;5.60;;;;;;;13.46;84.41;101218.78;6722173;85;99506;-93
2021/10/27 16:04:46;;;;;;;9.47;5.13;;;;;;;13.44;84.63;101236.92;6590934;87;378321;-91
2021/10/27 16:25:49;;;;;;;13.37;5.27;;;;;;;13.41;85.01;101238.47;6582676;86;544873;-88
2021/10/27 16:36:24;;;;;;;10.55;5.83;;;;;;;13.37;85.42;101253.44;6624511;86;2218923;-93
2021/10/27 16:46:05;;;;;;;11.67;5.20;;;;;;;13.36;85.38;101249.86;6658066;85;181376;-93
2021/10/27 16:56:07;;;;;;;12.23;5.12;;;;;;;13.35;85.51;101242.75;6732361;86;113459;-90
2021/10/27 17:06:12;;;;;;;12.07;5.40;;;;;;;13.33;85.56;101249.82;6642098;86;1287954;-94
2021/10/27 17:16:13;;;;;;;13.97;6.43;;;;;;;13.32;85.73;101262.05;6655589;86;100012;-93
2021/10/27 17:26:14;;;;;;;14.63;6.60;;;;;;;13.29;85.82;101271.09;6610963;86;3625674;-93
2021/10/27 17:36:16;;;;;;;13.10;6.23;;;;;;;13.29;85.90;101284.91;6638809;86;261667;-93
2021/10/27 17:46:19;;;;;;;12.73;6.17;;;;;;;13.27;85.94;101292.80;6672337;85;99317;-90
2021/10/27 18:06:39;;;;;;;13.07;5.77;;;;;;;13.22;86.12;101305.55;6672638;85;99306;-89
2021/10/27 18:16:59;;;;;;;14.07;6.60;;;;;;;13.17;86.21;101297.58;6669998;85;99182;-89
2021/10/27 18:47:24;;;;;;;14.37;7.80;;;;;;;13.09;86.38;101301.42;6779955;84;99093;-87
2021/10/27 19:18:04;;;;;;;19.53;7.70;;;;;;;13.05;86.47;101306.09;6797696;83;223473;-89
2021/10/27 19:28:13;;;;;;;16.27;6.83;;;;;;;13.03;86.42;101296.01;6761155;84;99304;-91
2021/10/27 20:09:34;;;;;;;13.28;6.45;;;;;;;13.01;86.54;101341.97;6775915;85;2114016;-91
2021/10/27 20:30:08;;;;;;;12.60;6.23;;;;;;;12.97;86.74;101348.63;6773393;85;124131;-91
2021/10/27 20:50:27;;;;;;;12.73;7.10;;;;;;;12.94;86.99;101354.27;6735607;85;99036;-90
2021/10/27 21:00:40;;;;;;;15.60;7.27;;;;;;;12.89;87.08;101340.77;6720490;86;168166;-91
2021/10/27 21:20:57;;;;;;;13.37;7.33;;;;;;;12.85;87.28;101336.33;6721984;86;99362;-89
2021/10/27 21:51:30;;;;;;;19.97;9.93;;;;;;;12.81;87.39;101341.02;6761002;85;211000;-89
2021/10/27 22:01:31;;;;;;;19.57;10.43;;;;;;;12.74;87.82;101343.64;6751509;85;99295;-89
2021/10/27 22:11:33;;;;;;;19.90;11.73;;;;;;;12.69;88.09;101336.48;6763775;85;99377;-89
2021/10/27 22:21:34;;;;;;;19.70;10.80;;;;;;;12.68;88.32;101328.55;6771499;85;169855;-89
2021/10/27 22:31:36;;;;;;;21.43;11.07;;;;;;;12.60;88.52;101318.57;6773246;85;99495;-90
2021/10/27 22:41:41;;;;;;;18.48;11.65;;;;;;;12.54;88.68;101318.06;6754093;85;99670;-89
2021/10/27 22:51:41;;;;;;;19.70;11.30;;;;;;;12.51;88.83;101314.67;6714475;86;99331;-85
2021/10/27 23:01:51;;;;;;;21.50;12.67;;;;;;;12.51;88.90;101316.62;6710504;86;99329;-86
2021/10/27 23:42:52;;;;;;;18.33;11.23;;;;;;;12.45;88.86;101319.48;6726604;86;99513;-84
